Arlington Heights, Illinois
Current Conditions -  °F | °C
As of 1:52 PM on Saturday 25 Oct 2014 (Local Time) from KPWK Reporting Station
Clear Clear  
Wind Chill: 73°   Ceiling: Unl
Heat Index: 73°   Visibility: 10mi
Dew Point: 35°   Wind: 14mph
Humidity: 25%   Direction: 290°WNW
Pressure: 29.93"   Gusts: NA
Location:  42.14°N, 87.99°W
Report Text: KPWK 251852Z 29012KT 10SM CLR 23/02 A2993 RMK AO2 SLP131 T02280017
Loading
Personal Weather Stations






























Interactive Weather Map New forecast layout! Learn more

10-Day Weather Forecast

Advertisements
Track Severe Weather on mobile